• Join FlightAware (Why Join?)
  • Login
  • US Flag 
07:26PM EST


 

Airport Tracker/Info


-or-


 

Live Flight TrackerFlight Track Log ✈ N516QS ✈ 06-Oct-2013 ✈ KSAV - KSAV

Flight Track Log - Related Links

Times and Time Zones

All times are in EDT time to prevent confusion due to time zone crossing. See the N516QS flight status page for this flight to view local times or setup timezone preferences in your user account.

Time Position Orientation Groundspeed Altitude Reporting Facility
EDT Latitude Longitude Course Direction KTS MPH feet Rate Location/Type
02:38PM 32.2531 -81.1778 350° North 258 297 6,700  Level Jacksonville Center
02:39PM 32.3181 -81.1914 350° North 279 321 9,800 3,300 Climbing Jacksonville Center
02:40PM 32.4142 -81.2044 353° North 302 348 13,300 2,580 Climbing Jacksonville Center
02:41PM 32.5064 -81.2225 351° North 332 382 15,000 900 Climbing Jacksonville Center
02:42PM 32.5942 -81.2331 354° North 344 396 15,100  Climbing Jacksonville Center
02:43PM 32.7236 -81.2506 354° North 396 456 15,000 240 Descending Jacksonville Center
02:44PM 32.8408 -81.2706 352° North 417 480 15,600 1,740 Climbing Jacksonville Center
02:45PM 32.9558 -81.2858 355° North 422 486 18,500 2,880 Climbing Jacksonville Center
02:46PM 33.0769 -81.2789 North 427 491 21,400 2,700 Climbing Jacksonville Center
02:47PM 33.1975 -81.2467 13° North 427 491 24,000 2,520 Climbing Jacksonville Center
02:48PM 33.3244 -81.2219 North 445 512 26,500 2,280 Climbing Jacksonville Center
02:49PM 33.4603 -81.2369 355° North 455 524 28,600 2,100 Climbing Jacksonville Center
02:50PM 33.6003 -81.2492 356° North 484 557 30,800 2,640 Climbing Jacksonville Center
02:51PM 33.7361 -81.2617 356° North 495 570 33,900 2,100 Climbing Jacksonville Center
02:52PM 33.8719 -81.2717 357° North 495 570 35,000 1,080 Climbing Jacksonville Center
02:53PM 34.0056 -81.2842 356° North 490 564 36,100 1,200 Climbing Jacksonville Center
02:54PM 34.1392 -81.2869 359° North 484 557 37,400 1,260 Climbing Jacksonville Center
02:55PM 34.2550 -81.2067 30° Northeast 457 526 38,700 1,440 Climbing Jacksonville Center
02:56PM 34.2592 -81.0636 88° East 353 406 40,300 1,140 Climbing Jacksonville Center
02:57PM 34.1425 -81.0636 180° South 198 228 41,000 360 Climbing Jacksonville Center
02:58PM 34.0283 -81.1208 203° Southwest 305 351 41,100 -120 Climbing Jacksonville Center
02:59PM 33.9061 -81.1736 200° South 380 437 40,800 -900 Descending Jacksonville Center
03:00PM 33.7986 -81.2456 209° Southwest 437 503 39,400 -1,680 Descending Jacksonville Center
03:01PM 33.6953 -81.3425 218° Southwest 456 525 37,500 -4,200 Descending Jacksonville Center
03:02PM 33.5942 -81.4364 218° Southwest 462 532 31,000 -3,300 Descending Jacksonville Center
03:03PM 33.4911 -81.5303 217° Southwest 467 537 31,000  Level Jacksonville Center
03:04PM 33.3681 -81.5544 189° South 442 509 31,000 -420 Level Jacksonville Center
03:05PM 33.2406 -81.5417 175° South 440 506 30,200 -1,020 Descending Jacksonville Center
03:06PM 33.1153 -81.5261 174° South 453 521 29,000 -600 Descending Jacksonville Center
03:07PM 32.9878 -81.5106 174° South 459 528 29,000 -360 Level Jacksonville Center
03:08PM 32.8581 -81.4953 174° South 465 535 28,300 -1,980 Descending Jacksonville Center
03:09PM 32.7328 -81.4800 174° South 465 535 25,100 -3,600 Descending Jacksonville Center
03:10PM 32.6242 -81.4694 175° South 440 506 21,100 -5,160 Descending Jacksonville Center
03:11PM 32.5050 -81.4539 174° South 416 479 14,800 -5,040 Descending Jacksonville Center
03:12PM 32.4064 -81.4286 168° South 384 442 11,100 -2,700 Descending Jacksonville Center
03:13PM 32.3272 -81.4222 176° South 289 333 9,400 -2,820 Descending Jacksonville Center
03:14PM 32.2600 -81.3989 164° South 274 315 5,500 -3,240 Descending Jacksonville Center
03:15PM 32.1908 -81.3631 156° South 284 327 3,000 -1,800 Descending Jacksonville Center
03:16PM 32.1381 -81.3272 150° Southeast 225 259 1,900 -1,020 Descending Jacksonville Center
03:17PM 32.1292 -81.2783 102° East 162 186 1,000 -780 Descending Jacksonville Center
03:18PM 32.1286 -81.2392 91° East 128 147 400 -420 Descending Jacksonville Center
03:19PM 32.1175 -81.1953 107° East 128 147 200 -240 Descending Jacksonville Center
03:21PM 32.1167 -81.2000 270° West  Level FlightAware Approximate